sensor_id;sensor_type;location;lat;lon;timestamp;temperature;humidity
22607;DHT22;11470;20.968;105.834;2023-09-30T00:00:44;27.40;99.90
22607;DHT22;11470;20.968;105.834;2023-09-30T00:05:49;27.80;99.90
22607;DHT22;11470;20.968;105.834;2023-09-30T00:10:54;28.00;99.90
22607;DHT22;11470;20.968;105.834;2023-09-30T00:15:59;28.30;99.90
22607;DHT22;11470;20.968;105.834;2023-09-30T00:21:04;28.40;99.90
22607;DHT22;11470;20.968;105.834;2023-09-30T00:26:10;28.70;99.90
22607;DHT22;11470;20.968;105.834;2023-09-30T00:31:15;28.90;99.90
22607;DHT22;11470;20.968;105.834;2023-09-30T00:36:20;29.20;99.90
22607;DHT22;11470;20.968;105.834;2023-09-30T00:41:26;29.60;99.90
22607;DHT22;11470;20.968;105.834;2023-09-30T00:46:33;29.90;99.90
22607;DHT22;11470;20.968;105.834;2023-09-30T00:51:41;30.30;99.90
22607;DHT22;11470;20.968;105.834;2023-09-30T00:56:46;30.30;99.90
22607;DHT22;11470;20.968;105.834;2023-09-30T01:01:54;30.40;99.90
22607;DHT22;11470;20.968;105.834;2023-09-30T01:07:03;30.70;99.90
22607;DHT22;11470;20.968;105.834;2023-09-30T01:12:09;30.70;99.90
22607;DHT22;11470;20.968;105.834;2023-09-30T01:17:14;30.90;99.90
22607;DHT22;11470;20.968;105.834;2023-09-30T01:22:19;30.80;99.90
22607;DHT22;11470;20.968;105.834;2023-09-30T01:27:25;30.90;99.90
22607;DHT22;11470;20.968;105.834;2023-09-30T01:32:30;31.00;99.90
22607;DHT22;11470;20.968;105.834;2023-09-30T01:37:36;31.40;99.90
22607;DHT22;11470;20.968;105.834;2023-09-30T01:42:41;32.10;99.90
22607;DHT22;11470;20.968;105.834;2023-09-30T01:47:47;32.10;99.90
22607;DHT22;11470;20.968;105.834;2023-09-30T01:52:52;31.80;99.90
22607;DHT22;11470;20.968;105.834;2023-09-30T01:57:58;32.20;99.90
22607;DHT22;11470;20.968;105.834;2023-09-30T02:03:03;32.90;99.90
22607;DHT22;11470;20.968;105.834;2023-09-30T02:08:08;33.60;99.90
22607;DHT22;11470;20.968;105.834;2023-09-30T02:13:13;34.10;99.90
22607;DHT22;11470;20.968;105.834;2023-09-30T02:18:22;34.30;99.90
22607;DHT22;11470;20.968;105.834;2023-09-30T02:23:27;34.60;99.90
22607;DHT22;11470;20.968;105.834;2023-09-30T02:28:32;34.00;99.90
22607;DHT22;11470;20.968;105.834;2023-09-30T02:33:38;33.00;99.90
22607;DHT22;11470;20.968;105.834;2023-09-30T02:38:43;32.30;99.90
22607;DHT22;11470;20.968;105.834;2023-09-30T02:43:50;31.70;99.90
22607;DHT22;11470;20.968;105.834;2023-09-30T02:48:55;31.50;99.90
22607;DHT22;11470;20.968;105.834;2023-09-30T02:54:02;31.30;99.90
22607;DHT22;11470;20.968;105.834;2023-09-30T02:59:07;31.00;99.90
22607;DHT22;11470;20.968;105.834;2023-09-30T03:04:12;31.00;99.90
22607;DHT22;11470;20.968;105.834;2023-09-30T03:09:17;31.50;99.90
22607;DHT22;11470;20.968;105.834;2023-09-30T03:14:23;31.40;99.90
22607;DHT22;11470;20.968;105.834;2023-09-30T03:19:28;31.20;99.90
22607;DHT22;11470;20.968;105.834;2023-09-30T03:24:33;31.20;99.90
22607;DHT22;11470;20.968;105.834;2023-09-30T03:29:39;31.30;99.90
22607;DHT22;11470;20.968;105.834;2023-09-30T03:34:45;31.30;99.90
22607;DHT22;11470;20.968;105.834;2023-09-30T03:39:50;31.10;99.90
22607;DHT22;11470;20.968;105.834;2023-09-30T03:44:55;31.50;99.90
22607;DHT22;11470;20.968;105.834;2023-09-30T03:50:02;32.30;99.90
22607;DHT22;11470;20.968;105.834;2023-09-30T03:55:08;33.50;99.90
22607;DHT22;11470;20.968;105.834;2023-09-30T04:00:16;34.10;99.90
22607;DHT22;11470;20.968;105.834;2023-09-30T04:05:25;34.30;99.90
22607;DHT22;11470;20.968;105.834;2023-09-30T04:10:34;34.20;99.90
22607;DHT22;11470;20.968;105.834;2023-09-30T04:15:39;34.10;99.90
22607;DHT22;11470;20.968;105.834;2023-09-30T04:38:16;34.00;99.90
22607;DHT22;11470;20.968;105.834;2023-09-30T04:43:21;33.50;99.90
22607;DHT22;11470;20.968;105.834;2023-09-30T04:48:26;33.30;99.90
22607;DHT22;11470;20.968;105.834;2023-09-30T04:53:31;33.20;99.90
22607;DHT22;11470;20.968;105.834;2023-09-30T04:58:38;33.20;99.90
22607;DHT22;11470;20.968;105.834;2023-09-30T05:03:43;33.30;99.90
22607;DHT22;11470;20.968;105.834;2023-09-30T05:08:48;33.20;99.90
22607;DHT22;11470;20.968;105.834;2023-09-30T05:13:53;33.20;99.90
22607;DHT22;11470;20.968;105.834;2023-09-30T05:18:59;33.30;99.90
22607;DHT22;11470;20.968;105.834;2023-09-30T05:24:05;34.20;99.90
22607;DHT22;11470;20.968;105.834;2023-09-30T05:29:09;35.70;99.90
22607;DHT22;11470;20.968;105.834;2023-09-30T05:34:14;37.10;99.90
22607;DHT22;11470;20.968;105.834;2023-09-30T05:39:19;37.10;99.90
22607;DHT22;11470;20.968;105.834;2023-09-30T05:44:24;39.40;99.90
22607;DHT22;11470;20.968;105.834;2023-09-30T05:49:31;40.70;99.90
22607;DHT22;11470;20.968;105.834;2023-09-30T05:54:36;41.50;99.90
22607;DHT22;11470;20.968;105.834;2023-09-30T05:59:42;42.20;99.90
22607;DHT22;11470;20.968;105.834;2023-09-30T06:04:47;43.50;99.90
22607;DHT22;11470;20.968;105.834;2023-09-30T06:09:55;42.80;99.90
22607;DHT22;11470;20.968;105.834;2023-09-30T06:15:02;41.90;99.90
22607;DHT22;11470;20.968;105.834;2023-09-30T06:20:08;39.10;99.90
22607;DHT22;11470;20.968;105.834;2023-09-30T06:25:20;37.30;99.90
22607;DHT22;11470;20.968;105.834;2023-09-30T06:30:28;38.60;99.90
22607;DHT22;11470;20.968;105.834;2023-09-30T06:35:40;39.70;99.90
22607;DHT22;11470;20.968;105.834;2023-09-30T06:40:54;40.30;99.90
22607;DHT22;11470;20.968;105.834;2023-09-30T06:46:06;41.00;99.90
22607;DHT22;11470;20.968;105.834;2023-09-30T06:51:15;41.30;99.90
22607;DHT22;11470;20.968;105.834;2023-09-30T06:56:22;41.10;99.90
22607;DHT22;11470;20.968;105.834;2023-09-30T07:01:27;40.90;99.90
22607;DHT22;11470;20.968;105.834;2023-09-30T07:06:33;41.60;99.90
22607;DHT22;11470;20.968;105.834;2023-09-30T07:11:38;41.90;99.90
22607;DHT22;11470;20.968;105.834;2023-09-30T07:16:44;42.70;99.90
22607;DHT22;11470;20.968;105.834;2023-09-30T07:21:49;42.50;99.90
22607;DHT22;11470;20.968;105.834;2023-09-30T07:27:07;43.50;99.90
22607;DHT22;11470;20.968;105.834;2023-09-30T07:32:29;41.80;99.90
22607;DHT22;11470;20.968;105.834;2023-09-30T07:37:35;38.70;99.90
22607;DHT22;11470;20.968;105.834;2023-09-30T07:42:41;39.90;99.90
22607;DHT22;11470;20.968;105.834;2023-09-30T07:47:47;41.40;99.90
22607;DHT22;11470;20.968;105.834;2023-09-30T07:52:52;41.30;99.90
22607;DHT22;11470;20.968;105.834;2023-09-30T07:57:58;39.40;99.90
22607;DHT22;11470;20.968;105.834;2023-09-30T08:03:04;37.70;99.90
22607;DHT22;11470;20.968;105.834;2023-09-30T08:08:11;37.20;99.90
22607;DHT22;11470;20.968;105.834;2023-09-30T08:13:16;36.70;99.90
22607;DHT22;11470;20.968;105.834;2023-09-30T08:18:22;36.40;99.90
22607;DHT22;11470;20.968;105.834;2023-09-30T08:23:26;35.70;99.90
22607;DHT22;11470;20.968;105.834;2023-09-30T08:28:32;34.70;99.90
22607;DHT22;11470;20.968;105.834;2023-09-30T08:33:37;34.20;99.90
22607;DHT22;11470;20.968;105.834;2023-09-30T08:38:47;34.30;99.90
22607;DHT22;11470;20.968;105.834;2023-09-30T08:43:53;34.30;99.90
22607;DHT22;11470;20.968;105.834;2023-09-30T08:49:04;34.00;99.90
22607;DHT22;11470;20.968;105.834;2023-09-30T08:54:12;33.70;99.90
22607;DHT22;11470;20.968;105.834;2023-09-30T08:59:17;33.80;99.90
22607;DHT22;11470;20.968;105.834;2023-09-30T09:04:22;33.80;99.90
22607;DHT22;11470;20.968;105.834;2023-09-30T09:09:27;33.70;99.90
22607;DHT22;11470;20.968;105.834;2023-09-30T09:14:40;33.60;99.90
22607;DHT22;11470;20.968;105.834;2023-09-30T09:19:59;33.60;99.90
22607;DHT22;11470;20.968;105.834;2023-09-30T09:25:05;33.30;99.90
22607;DHT22;11470;20.968;105.834;2023-09-30T09:30:22;32.80;99.90
22607;DHT22;11470;20.968;105.834;2023-09-30T09:35:29;32.30;99.90
22607;DHT22;11470;20.968;105.834;2023-09-30T09:40:39;31.90;99.90
22607;DHT22;11470;20.968;105.834;2023-09-30T09:45:44;31.70;99.90
22607;DHT22;11470;20.968;105.834;2023-09-30T09:50:51;31.40;99.90
22607;DHT22;11470;20.968;105.834;2023-09-30T09:55:56;31.30;99.90
22607;DHT22;11470;20.968;105.834;2023-09-30T10:01:03;31.10;99.90
22607;DHT22;11470;20.968;105.834;2023-09-30T10:06:10;30.90;99.90
22607;DHT22;11470;20.968;105.834;2023-09-30T10:11:19;30.80;99.90
22607;DHT22;11470;20.968;105.834;2023-09-30T10:27:27;30.70;99.90
22607;DHT22;11470;20.968;105.834;2023-09-30T10:43:41;30.40;99.90
22607;DHT22;11470;20.968;105.834;2023-09-30T10:48:46;30.40;99.90
22607;DHT22;11470;20.968;105.834;2023-09-30T10:53:53;30.30;99.90
22607;DHT22;11470;20.968;105.834;2023-09-30T10:59:04;30.20;99.90
22607;DHT22;11470;20.968;105.834;2023-09-30T11:04:17;30.30;99.90
22607;DHT22;11470;20.968;105.834;2023-09-30T11:09:26;30.10;99.90
22607;DHT22;11470;20.968;105.834;2023-09-30T11:14:34;29.80;99.90
22607;DHT22;11470;20.968;105.834;2023-09-30T11:19:48;29.70;99.90
22607;DHT22;11470;20.968;105.834;2023-09-30T11:25:18;29.80;99.90
22607;DHT22;11470;20.968;105.834;2023-09-30T11:30:24;29.80;99.90
22607;DHT22;11470;20.968;105.834;2023-09-30T11:35:32;29.40;99.90
22607;DHT22;11470;20.968;105.834;2023-09-30T11:40:40;29.20;99.90
22607;DHT22;11470;20.968;105.834;2023-09-30T11:45:45;29.10;99.90
22607;DHT22;11470;20.968;105.834;2023-09-30T11:50:55;29.20;99.90
22607;DHT22;11470;20.968;105.834;2023-09-30T11:56:07;29.10;99.90
22607;DHT22;11470;20.968;105.834;2023-09-30T12:01:15;28.70;99.90
22607;DHT22;11470;20.968;105.834;2023-09-30T12:06:20;28.50;99.90
22607;DHT22;11470;20.968;105.834;2023-09-30T12:11:26;28.40;99.90
22607;DHT22;11470;20.968;105.834;2023-09-30T12:16:33;28.30;99.90
22607;DHT22;11470;20.968;105.834;2023-09-30T12:21:39;28.40;99.90
22607;DHT22;11470;20.968;105.834;2023-09-30T12:26:45;28.30;99.90
22607;DHT22;11470;20.968;105.834;2023-09-30T12:31:53;28.30;99.90
22607;DHT22;11470;20.968;105.834;2023-09-30T12:36:59;28.30;99.90
22607;DHT22;11470;20.968;105.834;2023-09-30T12:42:04;28.30;99.90
22607;DHT22;11470;20.968;105.834;2023-09-30T12:47:13;28.20;99.90
22607;DHT22;11470;20.968;105.834;2023-09-30T12:52:18;28.10;99.90
22607;DHT22;11470;20.968;105.834;2023-09-30T12:57:23;28.10;99.90
22607;DHT22;11470;20.968;105.834;2023-09-30T13:02:31;28.20;99.90
22607;DHT22;11470;20.968;105.834;2023-09-30T13:07:36;28.30;99.90
22607;DHT22;11470;20.968;105.834;2023-09-30T13:12:44;28.30;99.90
22607;DHT22;11470;20.968;105.834;2023-09-30T13:17:49;28.30;99.90
22607;DHT22;11470;20.968;105.834;2023-09-30T13:22:54;28.20;99.90
22607;DHT22;11470;20.968;105.834;2023-09-30T13:27:59;28.20;99.90
22607;DHT22;11470;20.968;105.834;2023-09-30T13:33:05;28.20;99.90
22607;DHT22;11470;20.968;105.834;2023-09-30T13:38:10;28.10;99.90
22607;DHT22;11470;20.968;105.834;2023-09-30T13:43:15;28.20;99.90
22607;DHT22;11470;20.968;105.834;2023-09-30T13:48:20;28.20;99.90
22607;DHT22;11470;20.968;105.834;2023-09-30T13:53:26;28.10;99.90
22607;DHT22;11470;20.968;105.834;2023-09-30T13:58:31;28.20;99.90
22607;DHT22;11470;20.968;105.834;2023-09-30T14:03:37;28.10;99.90
22607;DHT22;11470;20.968;105.834;2023-09-30T14:08:42;28.00;99.90
22607;DHT22;11470;20.968;105.834;2023-09-30T14:13:47;28.00;99.90
22607;DHT22;11470;20.968;105.834;2023-09-30T14:18:53;28.00;99.90
22607;DHT22;11470;20.968;105.834;2023-09-30T14:24:00;28.10;99.90
22607;DHT22;11470;20.968;105.834;2023-09-30T14:29:06;28.10;99.90
22607;DHT22;11470;20.968;105.834;2023-09-30T14:34:11;28.10;99.90
22607;DHT22;11470;20.968;105.834;2023-09-30T14:39:17;28.10;99.90
22607;DHT22;11470;20.968;105.834;2023-09-30T14:44:22;28.10;99.90
22607;DHT22;11470;20.968;105.834;2023-09-30T14:49:30;28.00;99.90
22607;DHT22;11470;20.968;105.834;2023-09-30T14:54:38;28.00;99.90
22607;DHT22;11470;20.968;105.834;2023-09-30T14:59:43;28.00;99.90
22607;DHT22;11470;20.968;105.834;2023-09-30T15:04:49;27.90;99.90
22607;DHT22;11470;20.968;105.834;2023-09-30T15:09:54;27.90;99.90
22607;DHT22;11470;20.968;105.834;2023-09-30T15:21:54;27.90;99.90
22607;DHT22;11470;20.968;105.834;2023-09-30T15:26:59;27.90;99.90
22607;DHT22;11470;20.968;105.834;2023-09-30T15:32:05;27.80;99.90
22607;DHT22;11470;20.968;105.834;2023-09-30T15:37:13;27.80;99.90
22607;DHT22;11470;20.968;105.834;2023-09-30T15:42:17;27.70;99.90
22607;DHT22;11470;20.968;105.834;2023-09-30T15:47:22;27.70;99.90
22607;DHT22;11470;20.968;105.834;2023-09-30T15:52:29;27.80;99.90
22607;DHT22;11470;20.968;105.834;2023-09-30T15:57:34;27.70;99.90
22607;DHT22;11470;20.968;105.834;2023-09-30T16:02:39;27.70;99.90
22607;DHT22;11470;20.968;105.834;2023-09-30T16:07:44;27.60;99.90
22607;DHT22;11470;20.968;105.834;2023-09-30T16:12:49;27.60;99.90
22607;DHT22;11470;20.968;105.834;2023-09-30T16:17:58;27.50;99.90
22607;DHT22;11470;20.968;105.834;2023-09-30T16:23:03;27.50;99.90
22607;DHT22;11470;20.968;105.834;2023-09-30T16:28:08;27.60;99.90
22607;DHT22;11470;20.968;105.834;2023-09-30T16:33:14;27.50;99.90
22607;DHT22;11470;20.968;105.834;2023-09-30T16:38:20;27.50;99.90
22607;DHT22;11470;20.968;105.834;2023-09-30T16:43:26;27.60;99.90
22607;DHT22;11470;20.968;105.834;2023-09-30T16:48:31;27.50;99.90
22607;DHT22;11470;20.968;105.834;2023-09-30T16:53:36;27.50;99.90
22607;DHT22;11470;20.968;105.834;2023-09-30T16:58:42;27.50;99.90
22607;DHT22;11470;20.968;105.834;2023-09-30T17:03:47;27.50;99.90
22607;DHT22;11470;20.968;105.834;2023-09-30T17:08:53;27.50;99.90
22607;DHT22;11470;20.968;105.834;2023-09-30T17:13:58;27.40;99.90
22607;DHT22;11470;20.968;105.834;2023-09-30T17:19:03;27.40;99.90
22607;DHT22;11470;20.968;105.834;2023-09-30T17:24:10;27.50;99.90
22607;DHT22;11470;20.968;105.834;2023-09-30T17:29:15;27.40;99.90
22607;DHT22;11470;20.968;105.834;2023-09-30T17:34:20;27.40;99.90
22607;DHT22;11470;20.968;105.834;2023-09-30T17:39:26;27.30;99.90
22607;DHT22;11470;20.968;105.834;2023-09-30T17:44:32;27.20;99.90
22607;DHT22;11470;20.968;105.834;2023-09-30T17:49:38;27.20;99.90
22607;DHT22;11470;20.968;105.834;2023-09-30T17:54:43;27.20;99.90
22607;DHT22;11470;20.968;105.834;2023-09-30T17:59:48;27.30;99.90
22607;DHT22;11470;20.968;105.834;2023-09-30T18:04:54;27.40;99.90
22607;DHT22;11470;20.968;105.834;2023-09-30T18:09:59;27.40;99.90
22607;DHT22;11470;20.968;105.834;2023-09-30T18:15:04;27.40;99.90
22607;DHT22;11470;20.968;105.834;2023-09-30T18:20:11;27.40;99.90
22607;DHT22;11470;20.968;105.834;2023-09-30T18:25:16;27.40;99.90
22607;DHT22;11470;20.968;105.834;2023-09-30T18:30:21;27.40;99.90
22607;DHT22;11470;20.968;105.834;2023-09-30T18:35:26;27.30;99.90
22607;DHT22;11470;20.968;105.834;2023-09-30T18:40:31;27.30;99.90
22607;DHT22;11470;20.968;105.834;2023-09-30T18:45:38;27.20;99.90
22607;DHT22;11470;20.968;105.834;2023-09-30T18:50:48;27.10;99.90
22607;DHT22;11470;20.968;105.834;2023-09-30T18:55:55;27.10;99.90
22607;DHT22;11470;20.968;105.834;2023-09-30T19:01:01;27.00;99.90
22607;DHT22;11470;20.968;105.834;2023-09-30T19:06:08;27.00;99.90
22607;DHT22;11470;20.968;105.834;2023-09-30T19:11:13;26.90;99.90
22607;DHT22;11470;20.968;105.834;2023-09-30T19:16:20;26.80;99.90
22607;DHT22;11470;20.968;105.834;2023-09-30T19:21:25;26.80;99.90
22607;DHT22;11470;20.968;105.834;2023-09-30T19:26:30;26.70;99.90
22607;DHT22;11470;20.968;105.834;2023-09-30T19:31:35;26.70;99.90
22607;DHT22;11470;20.968;105.834;2023-09-30T19:36:41;26.70;99.90
22607;DHT22;11470;20.968;105.834;2023-09-30T19:41:46;26.80;99.90
22607;DHT22;11470;20.968;105.834;2023-09-30T19:46:51;26.70;99.90
22607;DHT22;11470;20.968;105.834;2023-09-30T19:51:57;26.70;99.90
22607;DHT22;11470;20.968;105.834;2023-09-30T19:57:05;26.70;99.90
22607;DHT22;11470;20.968;105.834;2023-09-30T20:02:10;26.60;99.90
22607;DHT22;11470;20.968;105.834;2023-09-30T20:07:15;26.50;99.90
22607;DHT22;11470;20.968;105.834;2023-09-30T20:12:20;26.50;99.90
22607;DHT22;11470;20.968;105.834;2023-09-30T20:17:26;26.50;99.90
22607;DHT22;11470;20.968;105.834;2023-09-30T20:22:32;26.50;99.90
22607;DHT22;11470;20.968;105.834;2023-09-30T20:27:38;26.50;99.90
22607;DHT22;11470;20.968;105.834;2023-09-30T20:32:45;26.50;99.90
22607;DHT22;11470;20.968;105.834;2023-09-30T20:37:51;26.50;99.90
22607;DHT22;11470;20.968;105.834;2023-09-30T20:42:56;26.50;99.90
22607;DHT22;11470;20.968;105.834;2023-09-30T20:48:01;26.50;99.90
22607;DHT22;11470;20.968;105.834;2023-09-30T20:53:06;26.40;99.90
22607;DHT22;11470;20.968;105.834;2023-09-30T20:58:12;26.40;99.90
22607;DHT22;11470;20.968;105.834;2023-09-30T21:03:17;26.40;99.90
22607;DHT22;11470;20.968;105.834;2023-09-30T21:08:22;26.40;99.90
22607;DHT22;11470;20.968;105.834;2023-09-30T21:13:28;26.40;99.90
22607;DHT22;11470;20.968;105.834;2023-09-30T21:18:32;26.30;99.90
22607;DHT22;11470;20.968;105.834;2023-09-30T21:23:38;26.30;99.90
22607;DHT22;11470;20.968;105.834;2023-09-30T21:28:43;26.20;99.90
22607;DHT22;11470;20.968;105.834;2023-09-30T21:33:51;26.30;99.90
22607;DHT22;11470;20.968;105.834;2023-09-30T21:38:56;26.20;99.90
22607;DHT22;11470;20.968;105.834;2023-09-30T21:44:01;26.30;99.90
22607;DHT22;11470;20.968;105.834;2023-09-30T21:49:06;26.30;99.90
22607;DHT22;11470;20.968;105.834;2023-09-30T21:54:12;26.30;99.90
22607;DHT22;11470;20.968;105.834;2023-09-30T21:59:17;26.30;99.90
22607;DHT22;11470;20.968;105.834;2023-09-30T22:04:22;26.20;99.90
22607;DHT22;11470;20.968;105.834;2023-09-30T22:09:27;26.20;99.90
22607;DHT22;11470;20.968;105.834;2023-09-30T22:14:32;26.30;99.90
22607;DHT22;11470;20.968;105.834;2023-09-30T22:19:38;26.30;99.90
22607;DHT22;11470;20.968;105.834;2023-09-30T22:24:43;26.30;99.90
22607;DHT22;11470;20.968;105.834;2023-09-30T22:29:48;26.30;99.90
22607;DHT22;11470;20.968;105.834;2023-09-30T22:34:53;26.30;99.90
22607;DHT22;11470;20.968;105.834;2023-09-30T22:39:59;26.30;99.90
22607;DHT22;11470;20.968;105.834;2023-09-30T22:45:05;26.30;99.90
22607;DHT22;11470;20.968;105.834;2023-09-30T22:50:10;26.30;99.90
22607;DHT22;11470;20.968;105.834;2023-09-30T22:55:16;26.30;99.90
22607;DHT22;11470;20.968;105.834;2023-09-30T23:00:22;26.30;99.90
22607;DHT22;11470;20.968;105.834;2023-09-30T23:05:31;26.40;99.90
22607;DHT22;11470;20.968;105.834;2023-09-30T23:10:36;26.40;99.90
22607;DHT22;11470;20.968;105.834;2023-09-30T23:15:42;26.40;99.90
22607;DHT22;11470;20.968;105.834;2023-09-30T23:20:47;26.50;99.90
22607;DHT22;11470;20.968;105.834;2023-09-30T23:25:53;26.50;99.90
22607;DHT22;11470;20.968;105.834;2023-09-30T23:31:00;26.60;99.90
22607;DHT22;11470;20.968;105.834;2023-09-30T23:36:10;26.60;99.90
22607;DHT22;11470;20.968;105.834;2023-09-30T23:41:16;26.70;99.90
22607;DHT22;11470;20.968;105.834;2023-09-30T23:46:20;27.00;99.90
22607;DHT22;11470;20.968;105.834;2023-09-30T23:51:27;27.30;99.90
22607;DHT22;11470;20.968;105.834;2023-09-30T23:56:34;27.50;99.90
